sensor_id;sensor_type;location;lat;lon;timestamp;P1;durP1;ratioP1;P2;durP2;ratioP2
23206;SDS011;11773;52.570;13.052;2023-04-07T00:01:15;1.20;;;1.10;;
23206;SDS011;11773;52.570;13.052;2023-04-07T00:03:44;1.63;;;1.50;;
23206;SDS011;11773;52.570;13.052;2023-04-07T00:06:14;1.37;;;1.27;;
23206;SDS011;11773;52.570;13.052;2023-04-07T00:08:43;1.60;;;1.33;;
23206;SDS011;11773;52.570;13.052;2023-04-07T00:11:13;1.93;;;1.60;;
23206;SDS011;11773;52.570;13.052;2023-04-07T00:13:42;1.63;;;1.43;;
23206;SDS011;11773;52.570;13.052;2023-04-07T00:16:12;1.40;;;1.30;;
23206;SDS011;11773;52.570;13.052;2023-04-07T00:18:42;2.40;;;1.90;;
23206;SDS011;11773;52.570;13.052;2023-04-07T00:21:11;3.00;;;2.40;;
23206;SDS011;11773;52.570;13.052;2023-04-07T00:23:41;2.57;;;1.87;;
23206;SDS011;11773;52.570;13.052;2023-04-07T00:26:11;2.00;;;1.73;;
23206;SDS011;11773;52.570;13.052;2023-04-07T00:28:41;2.47;;;1.70;;
23206;SDS011;11773;52.570;13.052;2023-04-07T00:31:11;1.60;;;1.43;;
23206;SDS011;11773;52.570;13.052;2023-04-07T00:33:40;2.03;;;1.83;;
23206;SDS011;11773;52.570;13.052;2023-04-07T00:36:10;2.63;;;1.90;;
23206;SDS011;11773;52.570;13.052;2023-04-07T00:38:39;2.10;;;1.80;;
23206;SDS011;11773;52.570;13.052;2023-04-07T00:41:09;2.57;;;1.97;;
23206;SDS011;11773;52.570;13.052;2023-04-07T00:43:38;2.97;;;2.43;;
23206;SDS011;11773;52.570;13.052;2023-04-07T00:46:08;2.67;;;2.07;;
23206;SDS011;11773;52.570;13.052;2023-04-07T00:48:37;3.53;;;2.33;;
23206;SDS011;11773;52.570;13.052;2023-04-07T00:51:07;4.20;;;2.73;;
23206;SDS011;11773;52.570;13.052;2023-04-07T00:53:37;2.47;;;2.10;;
23206;SDS011;11773;52.570;13.052;2023-04-07T00:56:06;3.00;;;2.10;;
23206;SDS011;11773;52.570;13.052;2023-04-07T00:58:36;2.83;;;2.07;;
23206;SDS011;11773;52.570;13.052;2023-04-07T01:01:07;2.40;;;1.63;;
23206;SDS011;11773;52.570;13.052;2023-04-07T01:03:57;2.17;;;1.53;;
23206;SDS011;11773;52.570;13.052;2023-04-07T01:06:37;2.00;;;1.67;;
23206;SDS011;11773;52.570;13.052;2023-04-07T01:09:10;1.10;;;1.10;;
23206;SDS011;11773;52.570;13.052;2023-04-07T01:12:14;1.40;;;1.17;;
23206;SDS011;11773;52.570;13.052;2023-04-07T01:14:54;1.73;;;1.37;;
23206;SDS011;11773;52.570;13.052;2023-04-07T01:17:28;1.27;;;1.10;;
23206;SDS011;11773;52.570;13.052;2023-04-07T01:20:04;1.20;;;1.10;;
23206;SDS011;11773;52.570;13.052;2023-04-07T01:22:44;1.13;;;1.03;;
23206;SDS011;11773;52.570;13.052;2023-04-07T01:31:33;1.63;;;1.10;;
23206;SDS011;11773;52.570;13.052;2023-04-07T01:34:05;1.40;;;1.10;;
23206;SDS011;11773;52.570;13.052;2023-04-07T01:36:41;0.93;;;0.90;;
23206;SDS011;11773;52.570;13.052;2023-04-07T01:39:13;1.40;;;1.30;;
23206;SDS011;11773;52.570;13.052;2023-04-07T01:41:44;1.23;;;1.10;;
23206;SDS011;11773;52.570;13.052;2023-04-07T01:44:16;1.30;;;1.10;;
23206;SDS011;11773;52.570;13.052;2023-04-07T01:46:47;0.90;;;0.90;;
23206;SDS011;11773;52.570;13.052;2023-04-07T01:49:17;1.17;;;1.07;;
23206;SDS011;11773;52.570;13.052;2023-04-07T01:51:48;1.07;;;1.00;;
23206;SDS011;11773;52.570;13.052;2023-04-07T01:54:18;1.00;;;0.93;;
23206;SDS011;11773;52.570;13.052;2023-04-07T01:56:49;1.20;;;1.03;;
23206;SDS011;11773;52.570;13.052;2023-04-07T01:59:19;0.80;;;0.80;;
23206;SDS011;11773;52.570;13.052;2023-04-07T02:01:48;1.00;;;1.00;;
23206;SDS011;11773;52.570;13.052;2023-04-07T02:04:27;1.50;;;1.40;;
23206;SDS011;11773;52.570;13.052;2023-04-07T02:07:21;1.23;;;1.13;;
23206;SDS011;11773;52.570;13.052;2023-04-07T02:10:06;1.10;;;1.00;;
23206;SDS011;11773;52.570;13.052;2023-04-07T02:12:39;1.33;;;1.03;;
23206;SDS011;11773;52.570;13.052;2023-04-07T02:15:11;1.10;;;1.10;;
23206;SDS011;11773;52.570;13.052;2023-04-07T02:17:48;1.07;;;0.97;;
23206;SDS011;11773;52.570;13.052;2023-04-07T02:20:17;1.57;;;1.23;;
23206;SDS011;11773;52.570;13.052;2023-04-07T02:22:49;1.77;;;1.23;;
23206;SDS011;11773;52.570;13.052;2023-04-07T02:25:21;1.43;;;1.33;;
23206;SDS011;11773;52.570;13.052;2023-04-07T02:27:56;1.43;;;1.30;;
23206;SDS011;11773;52.570;13.052;2023-04-07T02:30:27;1.20;;;1.10;;
23206;SDS011;11773;52.570;13.052;2023-04-07T02:32:57;1.27;;;1.00;;
23206;SDS011;11773;52.570;13.052;2023-04-07T02:35:27;1.43;;;1.00;;
23206;SDS011;11773;52.570;13.052;2023-04-07T02:37:57;1.50;;;1.40;;
23206;SDS011;11773;52.570;13.052;2023-04-07T02:40:26;2.43;;;1.87;;
23206;SDS011;11773;52.570;13.052;2023-04-07T02:42:56;1.77;;;1.60;;
23206;SDS011;11773;52.570;13.052;2023-04-07T02:45:27;1.27;;;1.17;;
23206;SDS011;11773;52.570;13.052;2023-04-07T02:47:56;1.33;;;1.20;;
23206;SDS011;11773;52.570;13.052;2023-04-07T02:50:26;1.37;;;1.27;;
23206;SDS011;11773;52.570;13.052;2023-04-07T02:52:55;1.60;;;1.37;;
23206;SDS011;11773;52.570;13.052;2023-04-07T02:55:25;0.97;;;0.93;;
23206;SDS011;11773;52.570;13.052;2023-04-07T02:57:54;1.40;;;1.30;;
23206;SDS011;11773;52.570;13.052;2023-04-07T03:00:24;1.20;;;1.07;;
23206;SDS011;11773;52.570;13.052;2023-04-07T03:02:53;1.07;;;0.97;;
23206;SDS011;11773;52.570;13.052;2023-04-07T03:05:23;1.17;;;1.00;;
23206;SDS011;11773;52.570;13.052;2023-04-07T03:07:53;1.57;;;0.87;;
23206;SDS011;11773;52.570;13.052;2023-04-07T03:10:22;1.00;;;0.90;;
23206;SDS011;11773;52.570;13.052;2023-04-07T03:12:52;0.97;;;0.90;;
23206;SDS011;11773;52.570;13.052;2023-04-07T03:15:22;1.20;;;0.87;;
23206;SDS011;11773;52.570;13.052;2023-04-07T03:17:51;0.90;;;0.90;;
23206;SDS011;11773;52.570;13.052;2023-04-07T03:20:21;1.30;;;1.10;;
23206;SDS011;11773;52.570;13.052;2023-04-07T03:22:51;1.23;;;1.10;;
23206;SDS011;11773;52.570;13.052;2023-04-07T03:25:20;1.20;;;1.10;;
23206;SDS011;11773;52.570;13.052;2023-04-07T03:27:50;1.27;;;1.17;;
23206;SDS011;11773;52.570;13.052;2023-04-07T03:30:19;1.20;;;0.90;;
23206;SDS011;11773;52.570;13.052;2023-04-07T03:32:49;0.80;;;0.80;;
23206;SDS011;11773;52.570;13.052;2023-04-07T03:35:18;0.87;;;0.87;;
23206;SDS011;11773;52.570;13.052;2023-04-07T03:37:48;1.40;;;1.30;;
23206;SDS011;11773;52.570;13.052;2023-04-07T03:40:17;1.20;;;1.10;;
23206;SDS011;11773;52.570;13.052;2023-04-07T03:42:47;1.30;;;1.20;;
23206;SDS011;11773;52.570;13.052;2023-04-07T03:45:17;1.60;;;1.40;;
23206;SDS011;11773;52.570;13.052;2023-04-07T03:47:47;1.40;;;1.30;;
23206;SDS011;11773;52.570;13.052;2023-04-07T03:50:17;1.50;;;1.40;;
23206;SDS011;11773;52.570;13.052;2023-04-07T03:52:47;1.40;;;1.27;;
23206;SDS011;11773;52.570;13.052;2023-04-07T03:55:16;1.27;;;1.07;;
23206;SDS011;11773;52.570;13.052;2023-04-07T03:57:46;1.03;;;0.90;;
23206;SDS011;11773;52.570;13.052;2023-04-07T04:00:15;1.20;;;1.07;;
23206;SDS011;11773;52.570;13.052;2023-04-07T04:02:45;0.80;;;0.80;;
23206;SDS011;11773;52.570;13.052;2023-04-07T04:05:14;1.17;;;1.07;;
23206;SDS011;11773;52.570;13.052;2023-04-07T04:07:44;1.37;;;1.17;;
23206;SDS011;11773;52.570;13.052;2023-04-07T04:10:13;1.37;;;1.00;;
23206;SDS011;11773;52.570;13.052;2023-04-07T04:12:43;1.00;;;0.90;;
23206;SDS011;11773;52.570;13.052;2023-04-07T04:15:14;0.97;;;0.87;;
23206;SDS011;11773;52.570;13.052;2023-04-07T04:17:44;0.70;;;0.70;;
23206;SDS011;11773;52.570;13.052;2023-04-07T04:20:14;1.03;;;0.83;;
23206;SDS011;11773;52.570;13.052;2023-04-07T04:22:43;1.10;;;1.00;;
23206;SDS011;11773;52.570;13.052;2023-04-07T04:25:12;0.73;;;0.73;;
23206;SDS011;11773;52.570;13.052;2023-04-07T04:27:44;1.17;;;1.07;;
23206;SDS011;11773;52.570;13.052;2023-04-07T04:30:13;1.23;;;1.13;;
23206;SDS011;11773;52.570;13.052;2023-04-07T04:32:42;1.57;;;1.20;;
23206;SDS011;11773;52.570;13.052;2023-04-07T04:35:12;1.30;;;1.13;;
23206;SDS011;11773;52.570;13.052;2023-04-07T04:37:42;0.77;;;0.77;;
23206;SDS011;11773;52.570;13.052;2023-04-07T04:40:11;1.20;;;1.00;;
23206;SDS011;11773;52.570;13.052;2023-04-07T04:42:41;1.63;;;1.43;;
23206;SDS011;11773;52.570;13.052;2023-04-07T04:45:10;1.67;;;1.20;;
23206;SDS011;11773;52.570;13.052;2023-04-07T04:47:40;1.57;;;1.30;;
23206;SDS011;11773;52.570;13.052;2023-04-07T04:50:10;1.87;;;1.53;;
23206;SDS011;11773;52.570;13.052;2023-04-07T04:52:39;1.57;;;1.30;;
23206;SDS011;11773;52.570;13.052;2023-04-07T04:55:09;1.67;;;1.30;;
23206;SDS011;11773;52.570;13.052;2023-04-07T04:57:40;1.60;;;1.50;;
23206;SDS011;11773;52.570;13.052;2023-04-07T05:00:10;1.40;;;1.30;;
23206;SDS011;11773;52.570;13.052;2023-04-07T05:02:40;1.50;;;1.30;;
23206;SDS011;11773;52.570;13.052;2023-04-07T05:05:10;1.40;;;1.30;;
23206;SDS011;11773;52.570;13.052;2023-04-07T05:07:40;1.30;;;1.20;;
23206;SDS011;11773;52.570;13.052;2023-04-07T05:10:09;2.17;;;1.97;;
23206;SDS011;11773;52.570;13.052;2023-04-07T05:12:39;1.97;;;1.70;;
23206;SDS011;11773;52.570;13.052;2023-04-07T05:15:08;1.70;;;1.60;;
23206;SDS011;11773;52.570;13.052;2023-04-07T05:17:38;1.60;;;1.47;;
23206;SDS011;11773;52.570;13.052;2023-04-07T05:20:08;1.83;;;1.50;;
23206;SDS011;11773;52.570;13.052;2023-04-07T05:22:38;2.10;;;1.80;;
23206;SDS011;11773;52.570;13.052;2023-04-07T05:25:07;2.00;;;1.80;;
23206;SDS011;11773;52.570;13.052;2023-04-07T05:27:37;2.33;;;1.83;;
23206;SDS011;11773;52.570;13.052;2023-04-07T05:30:07;2.03;;;1.83;;
23206;SDS011;11773;52.570;13.052;2023-04-07T05:32:36;1.77;;;1.67;;
23206;SDS011;11773;52.570;13.052;2023-04-07T05:35:06;1.20;;;1.10;;
23206;SDS011;11773;52.570;13.052;2023-04-07T05:37:36;2.60;;;2.13;;
23206;SDS011;11773;52.570;13.052;2023-04-07T05:40:06;1.73;;;1.53;;
23206;SDS011;11773;52.570;13.052;2023-04-07T05:42:36;1.93;;;1.77;;
23206;SDS011;11773;52.570;13.052;2023-04-07T05:45:06;2.03;;;1.57;;
23206;SDS011;11773;52.570;13.052;2023-04-07T05:47:37;1.70;;;1.40;;
23206;SDS011;11773;52.570;13.052;2023-04-07T05:50:07;1.90;;;1.70;;
23206;SDS011;11773;52.570;13.052;2023-04-07T05:52:39;1.77;;;1.60;;
23206;SDS011;11773;52.570;13.052;2023-04-07T05:55:08;2.10;;;1.90;;
23206;SDS011;11773;52.570;13.052;2023-04-07T05:57:38;2.17;;;1.97;;
23206;SDS011;11773;52.570;13.052;2023-04-07T06:00:08;2.27;;;1.90;;
23206;SDS011;11773;52.570;13.052;2023-04-07T06:02:38;2.73;;;2.30;;
23206;SDS011;11773;52.570;13.052;2023-04-07T06:05:08;2.60;;;2.40;;
23206;SDS011;11773;52.570;13.052;2023-04-07T06:07:38;2.03;;;1.83;;
23206;SDS011;11773;52.570;13.052;2023-04-07T06:10:08;3.67;;;2.30;;
23206;SDS011;11773;52.570;13.052;2023-04-07T06:12:37;2.10;;;1.87;;
23206;SDS011;11773;52.570;13.052;2023-04-07T06:15:07;2.43;;;2.03;;
23206;SDS011;11773;52.570;13.052;2023-04-07T06:17:37;2.10;;;1.80;;
23206;SDS011;11773;52.570;13.052;2023-04-07T06:20:07;2.50;;;2.20;;
23206;SDS011;11773;52.570;13.052;2023-04-07T06:22:37;3.23;;;2.50;;
23206;SDS011;11773;52.570;13.052;2023-04-07T06:25:09;2.27;;;2.00;;
23206;SDS011;11773;52.570;13.052;2023-04-07T06:27:38;3.07;;;2.37;;
23206;SDS011;11773;52.570;13.052;2023-04-07T06:30:08;2.13;;;1.83;;
23206;SDS011;11773;52.570;13.052;2023-04-07T06:32:38;2.10;;;1.70;;
23206;SDS011;11773;52.570;13.052;2023-04-07T06:35:08;2.03;;;1.83;;
23206;SDS011;11773;52.570;13.052;2023-04-07T06:37:37;1.90;;;1.60;;
23206;SDS011;11773;52.570;13.052;2023-04-07T06:40:07;2.47;;;2.00;;
23206;SDS011;11773;52.570;13.052;2023-04-07T06:42:37;2.73;;;2.20;;
23206;SDS011;11773;52.570;13.052;2023-04-07T06:45:07;2.80;;;2.40;;
23206;SDS011;11773;52.570;13.052;2023-04-07T06:47:37;2.27;;;1.90;;
23206;SDS011;11773;52.570;13.052;2023-04-07T06:50:07;2.00;;;1.80;;
23206;SDS011;11773;52.570;13.052;2023-04-07T06:52:37;2.20;;;1.90;;
23206;SDS011;11773;52.570;13.052;2023-04-07T06:55:07;2.10;;;1.90;;
23206;SDS011;11773;52.570;13.052;2023-04-07T06:57:36;2.33;;;2.10;;
23206;SDS011;11773;52.570;13.052;2023-04-07T07:00:06;2.73;;;2.40;;
23206;SDS011;11773;52.570;13.052;2023-04-07T07:02:37;3.43;;;2.80;;
23206;SDS011;11773;52.570;13.052;2023-04-07T07:05:07;2.97;;;2.67;;
23206;SDS011;11773;52.570;13.052;2023-04-07T07:07:37;3.73;;;2.87;;
23206;SDS011;11773;52.570;13.052;2023-04-07T07:10:09;3.43;;;2.57;;
23206;SDS011;11773;52.570;13.052;2023-04-07T07:12:39;2.70;;;2.50;;
23206;SDS011;11773;52.570;13.052;2023-04-07T07:15:08;2.97;;;2.70;;
23206;SDS011;11773;52.570;13.052;2023-04-07T07:17:38;4.77;;;3.00;;
23206;SDS011;11773;52.570;13.052;2023-04-07T07:20:08;3.70;;;2.90;;
23206;SDS011;11773;52.570;13.052;2023-04-07T07:22:38;3.47;;;2.60;;
23206;SDS011;11773;52.570;13.052;2023-04-07T07:25:07;3.23;;;2.70;;
23206;SDS011;11773;52.570;13.052;2023-04-07T07:27:37;3.50;;;2.87;;
23206;SDS011;11773;52.570;13.052;2023-04-07T07:30:07;4.50;;;3.13;;
23206;SDS011;11773;52.570;13.052;2023-04-07T07:32:37;3.07;;;2.73;;
23206;SDS011;11773;52.570;13.052;2023-04-07T07:35:06;2.80;;;2.50;;
23206;SDS011;11773;52.570;13.052;2023-04-07T07:37:36;2.30;;;2.10;;
23206;SDS011;11773;52.570;13.052;2023-04-07T07:40:06;2.33;;;2.03;;
23206;SDS011;11773;52.570;13.052;2023-04-07T07:42:36;2.87;;;2.57;;
23206;SDS011;11773;52.570;13.052;2023-04-07T07:45:05;2.80;;;2.50;;
23206;SDS011;11773;52.570;13.052;2023-04-07T07:47:35;3.10;;;2.80;;
23206;SDS011;11773;52.570;13.052;2023-04-07T07:50:05;2.37;;;2.10;;
23206;SDS011;11773;52.570;13.052;2023-04-07T07:52:35;2.93;;;2.20;;
23206;SDS011;11773;52.570;13.052;2023-04-07T07:55:04;2.43;;;2.23;;
23206;SDS011;11773;52.570;13.052;2023-04-07T07:57:34;2.63;;;2.40;;
23206;SDS011;11773;52.570;13.052;2023-04-07T08:00:04;2.50;;;2.30;;
23206;SDS011;11773;52.570;13.052;2023-04-07T08:02:34;2.53;;;2.27;;
23206;SDS011;11773;52.570;13.052;2023-04-07T08:05:05;2.23;;;2.03;;
23206;SDS011;11773;52.570;13.052;2023-04-07T08:07:34;2.33;;;2.13;;
23206;SDS011;11773;52.570;13.052;2023-04-07T08:10:04;2.80;;;2.23;;
23206;SDS011;11773;52.570;13.052;2023-04-07T08:12:34;2.30;;;2.10;;
23206;SDS011;11773;52.570;13.052;2023-04-07T08:15:04;2.07;;;1.87;;
23206;SDS011;11773;52.570;13.052;2023-04-07T08:17:36;3.10;;;2.43;;
23206;SDS011;11773;52.570;13.052;2023-04-07T08:20:05;2.97;;;2.30;;
23206;SDS011;11773;52.570;13.052;2023-04-07T08:22:37;2.33;;;2.13;;
23206;SDS011;11773;52.570;13.052;2023-04-07T08:25:07;3.37;;;2.57;;
23206;SDS011;11773;52.570;13.052;2023-04-07T08:27:37;2.57;;;2.37;;
23206;SDS011;11773;52.570;13.052;2023-04-07T08:30:06;2.77;;;2.00;;
23206;SDS011;11773;52.570;13.052;2023-04-07T08:32:39;2.10;;;1.87;;
23206;SDS011;11773;52.570;13.052;2023-04-07T08:35:11;1.93;;;1.73;;
23206;SDS011;11773;52.570;13.052;2023-04-07T08:37:41;2.83;;;2.00;;
23206;SDS011;11773;52.570;13.052;2023-04-07T08:40:11;2.50;;;1.90;;
23206;SDS011;11773;52.570;13.052;2023-04-07T08:42:42;2.20;;;1.80;;
23206;SDS011;11773;52.570;13.052;2023-04-07T08:45:18;3.13;;;2.37;;
23206;SDS011;11773;52.570;13.052;2023-04-07T08:47:49;1.60;;;1.50;;
23206;SDS011;11773;52.570;13.052;2023-04-07T08:50:25;2.20;;;2.00;;
23206;SDS011;11773;52.570;13.052;2023-04-07T08:52:56;2.33;;;1.73;;
23206;SDS011;11773;52.570;13.052;2023-04-07T08:55:31;3.13;;;2.00;;
23206;SDS011;11773;52.570;13.052;2023-04-07T08:58:03;2.70;;;2.00;;
23206;SDS011;11773;52.570;13.052;2023-04-07T09:00:33;2.10;;;1.77;;
23206;SDS011;11773;52.570;13.052;2023-04-07T09:03:02;2.30;;;1.80;;
23206;SDS011;11773;52.570;13.052;2023-04-07T09:05:34;3.67;;;2.50;;
23206;SDS011;11773;52.570;13.052;2023-04-07T09:08:05;3.50;;;2.47;;
23206;SDS011;11773;52.570;13.052;2023-04-07T09:10:35;2.63;;;2.27;;
23206;SDS011;11773;52.570;13.052;2023-04-07T09:13:04;3.43;;;2.80;;
23206;SDS011;11773;52.570;13.052;2023-04-07T09:15:34;2.40;;;2.20;;
23206;SDS011;11773;52.570;13.052;2023-04-07T09:18:04;2.60;;;2.17;;
23206;SDS011;11773;52.570;13.052;2023-04-07T09:23:34;2.10;;;1.90;;
23206;SDS011;11773;52.570;13.052;2023-04-07T09:26:23;2.40;;;2.20;;
23206;SDS011;11773;52.570;13.052;2023-04-07T09:28:56;2.60;;;2.33;;
23206;SDS011;11773;52.570;13.052;2023-04-07T09:31:45;1.90;;;1.57;;
23206;SDS011;11773;52.570;13.052;2023-04-07T09:34:25;2.00;;;1.80;;
23206;SDS011;11773;52.570;13.052;2023-04-07T09:36:57;1.87;;;1.67;;
23206;SDS011;11773;52.570;13.052;2023-04-07T09:39:27;2.60;;;1.90;;
23206;SDS011;11773;52.570;13.052;2023-04-07T09:41:57;3.13;;;2.60;;
23206;SDS011;11773;52.570;13.052;2023-04-07T09:44:28;2.67;;;2.37;;
23206;SDS011;11773;52.570;13.052;2023-04-07T09:47:03;2.93;;;2.20;;
23206;SDS011;11773;52.570;13.052;2023-04-07T09:49:33;3.50;;;2.20;;
23206;SDS011;11773;52.570;13.052;2023-04-07T09:55:21;2.30;;;2.00;;
23206;SDS011;11773;52.570;13.052;2023-04-07T09:57:52;1.90;;;1.70;;
23206;SDS011;11773;52.570;13.052;2023-04-07T10:00:23;2.20;;;2.00;;
23206;SDS011;11773;52.570;13.052;2023-04-07T10:02:53;2.20;;;1.63;;
23206;SDS011;11773;52.570;13.052;2023-04-07T10:05:25;1.83;;;1.70;;
23206;SDS011;11773;52.570;13.052;2023-04-07T10:07:56;2.97;;;2.03;;
23206;SDS011;11773;52.570;13.052;2023-04-07T10:10:28;1.90;;;1.70;;
23206;SDS011;11773;52.570;13.052;2023-04-07T10:12:59;1.67;;;1.57;;
23206;SDS011;11773;52.570;13.052;2023-04-07T10:15:30;1.47;;;1.37;;
23206;SDS011;11773;52.570;13.052;2023-04-07T10:18:00;2.20;;;2.00;;
23206;SDS011;11773;52.570;13.052;2023-04-07T10:20:33;1.85;;;1.55;;
23206;SDS011;11773;52.570;13.052;2023-04-07T10:23:15;2.27;;;1.87;;
23206;SDS011;11773;52.570;13.052;2023-04-07T10:25:49;1.73;;;1.60;;
23206;SDS011;11773;52.570;13.052;2023-04-07T10:28:22;2.20;;;2.00;;
23206;SDS011;11773;52.570;13.052;2023-04-07T10:30:54;2.93;;;2.10;;
23206;SDS011;11773;52.570;13.052;2023-04-07T10:33:47;1.70;;;1.50;;
23206;SDS011;11773;52.570;13.052;2023-04-07T10:36:19;2.03;;;1.67;;
23206;SDS011;11773;52.570;13.052;2023-04-07T10:41:42;1.80;;;1.57;;
23206;SDS011;11773;52.570;13.052;2023-04-07T10:44:58;1.73;;;1.50;;
23206;SDS011;11773;52.570;13.052;2023-04-07T10:47:12;1.50;;;1.40;;
23206;SDS011;11773;52.570;13.052;2023-04-07T10:50:13;2.50;;;1.60;;
23206;SDS011;11773;52.570;13.052;2023-04-07T10:52:48;1.57;;;1.47;;
23206;SDS011;11773;52.570;13.052;2023-04-07T10:55:42;1.30;;;1.20;;
23206;SDS011;11773;52.570;13.052;2023-04-07T10:58:21;2.50;;;1.30;;
23206;SDS011;11773;52.570;13.052;2023-04-07T11:03:36;1.37;;;0.93;;
23206;SDS011;11773;52.570;13.052;2023-04-07T11:06:14;1.27;;;1.17;;
23206;SDS011;11773;52.570;13.052;2023-04-07T11:08:43;0.80;;;0.80;;
23206;SDS011;11773;52.570;13.052;2023-04-07T11:11:18;1.20;;;1.10;;
23206;SDS011;11773;52.570;13.052;2023-04-07T11:14:07;1.87;;;1.20;;
23206;SDS011;11773;52.570;13.052;2023-04-07T11:16:38;1.57;;;1.30;;
23206;SDS011;11773;52.570;13.052;2023-04-07T11:19:11;2.27;;;1.70;;
23206;SDS011;11773;52.570;13.052;2023-04-07T11:21:41;2.67;;;1.80;;
23206;SDS011;11773;52.570;13.052;2023-04-07T11:24:30;1.93;;;1.73;;
23206;SDS011;11773;52.570;13.052;2023-04-07T11:27:03;1.77;;;1.47;;
23206;SDS011;11773;52.570;13.052;2023-04-07T11:29:34;3.43;;;2.00;;
23206;SDS011;11773;52.570;13.052;2023-04-07T11:32:03;2.03;;;1.77;;
23206;SDS011;11773;52.570;13.052;2023-04-07T11:34:34;1.23;;;1.13;;
23206;SDS011;11773;52.570;13.052;2023-04-07T11:37:20;0.97;;;0.87;;
23206;SDS011;11773;52.570;13.052;2023-04-07T11:39:54;1.70;;;1.60;;
23206;SDS011;11773;52.570;13.052;2023-04-07T11:45:16;2.10;;;1.90;;
23206;SDS011;11773;52.570;13.052;2023-04-07T11:47:46;1.93;;;1.73;;
23206;SDS011;11773;52.570;13.052;2023-04-07T11:50:17;1.60;;;1.43;;
23206;SDS011;11773;52.570;13.052;2023-04-07T11:53:09;1.90;;;1.57;;
23206;SDS011;11773;52.570;13.052;2023-04-07T11:55:39;1.50;;;1.40;;
23206;SDS011;11773;52.570;13.052;2023-04-07T11:58:08;2.03;;;1.83;;
23206;SDS011;11773;52.570;13.052;2023-04-07T12:00:51;1.47;;;1.37;;
23206;SDS011;11773;52.570;13.052;2023-04-07T12:03:27;1.40;;;1.30;;
23206;SDS011;11773;52.570;13.052;2023-04-07T12:05:57;1.20;;;1.10;;
23206;SDS011;11773;52.570;13.052;2023-04-07T12:08:40;2.27;;;1.67;;
23206;SDS011;11773;52.570;13.052;2023-04-07T12:11:11;2.20;;;1.83;;
23206;SDS011;11773;52.570;13.052;2023-04-07T12:13:41;1.67;;;1.43;;
23206;SDS011;11773;52.570;13.052;2023-04-07T12:16:10;1.23;;;1.13;;
23206;SDS011;11773;52.570;13.052;2023-04-07T12:18:40;1.47;;;1.37;;
23206;SDS011;11773;52.570;13.052;2023-04-07T12:21:09;1.10;;;1.00;;
23206;SDS011;11773;52.570;13.052;2023-04-07T12:23:39;1.63;;;1.33;;
23206;SDS011;11773;52.570;13.052;2023-04-07T12:26:08;1.00;;;0.90;;
23206;SDS011;11773;52.570;13.052;2023-04-07T12:28:38;0.80;;;0.80;;
23206;SDS011;11773;52.570;13.052;2023-04-07T12:31:07;0.70;;;0.70;;
23206;SDS011;11773;52.570;13.052;2023-04-07T12:33:37;1.10;;;1.00;;
23206;SDS011;11773;52.570;13.052;2023-04-07T12:36:07;1.20;;;1.10;;
23206;SDS011;11773;52.570;13.052;2023-04-07T12:38:36;1.00;;;1.00;;
23206;SDS011;11773;52.570;13.052;2023-04-07T12:41:06;1.33;;;1.17;;
23206;SDS011;11773;52.570;13.052;2023-04-07T12:43:36;0.93;;;0.83;;
23206;SDS011;11773;52.570;13.052;2023-04-07T12:46:05;0.90;;;0.90;;
23206;SDS011;11773;52.570;13.052;2023-04-07T12:48:35;1.00;;;0.90;;
23206;SDS011;11773;52.570;13.052;2023-04-07T12:51:04;1.07;;;0.97;;
23206;SDS011;11773;52.570;13.052;2023-04-07T12:53:34;1.53;;;1.37;;
23206;SDS011;11773;52.570;13.052;2023-04-07T12:56:03;0.93;;;0.83;;
23206;SDS011;11773;52.570;13.052;2023-04-07T12:58:33;0.80;;;0.80;;
23206;SDS011;11773;52.570;13.052;2023-04-07T13:01:02;0.77;;;0.60;;
23206;SDS011;11773;52.570;13.052;2023-04-07T13:03:32;0.80;;;0.60;;
23206;SDS011;11773;52.570;13.052;2023-04-07T13:06:03;0.57;;;0.57;;
23206;SDS011;11773;52.570;13.052;2023-04-07T13:08:33;0.50;;;0.50;;
23206;SDS011;11773;52.570;13.052;2023-04-07T13:11:02;0.60;;;0.60;;
23206;SDS011;11773;52.570;13.052;2023-04-07T13:13:32;0.57;;;0.57;;
23206;SDS011;11773;52.570;13.052;2023-04-07T13:16:02;0.90;;;0.80;;
23206;SDS011;11773;52.570;13.052;2023-04-07T13:18:32;0.40;;;0.40;;
23206;SDS011;11773;52.570;13.052;2023-04-07T13:21:03;0.60;;;0.60;;
23206;SDS011;11773;52.570;13.052;2023-04-07T13:23:34;0.50;;;0.50;;
23206;SDS011;11773;52.570;13.052;2023-04-07T13:26:05;0.70;;;0.40;;
23206;SDS011;11773;52.570;13.052;2023-04-07T13:28:35;1.07;;;0.70;;
23206;SDS011;11773;52.570;13.052;2023-04-07T13:31:05;0.70;;;0.70;;
23206;SDS011;11773;52.570;13.052;2023-04-07T13:33:36;0.60;;;0.50;;
23206;SDS011;11773;52.570;13.052;2023-04-07T13:36:07;0.80;;;0.80;;
23206;SDS011;11773;52.570;13.052;2023-04-07T13:38:36;0.77;;;0.77;;
23206;SDS011;11773;52.570;13.052;2023-04-07T13:41:08;1.00;;;0.80;;
23206;SDS011;11773;52.570;13.052;2023-04-07T13:43:37;0.60;;;0.60;;
23206;SDS011;11773;52.570;13.052;2023-04-07T13:46:07;0.60;;;0.60;;
23206;SDS011;11773;52.570;13.052;2023-04-07T13:48:44;0.50;;;0.50;;
23206;SDS011;11773;52.570;13.052;2023-04-07T13:51:14;0.70;;;0.70;;
23206;SDS011;11773;52.570;13.052;2023-04-07T13:53:44;0.90;;;0.90;;
23206;SDS011;11773;52.570;13.052;2023-04-07T13:56:14;0.60;;;0.60;;
23206;SDS011;11773;52.570;13.052;2023-04-07T13:58:43;1.37;;;1.10;;
23206;SDS011;11773;52.570;13.052;2023-04-07T14:01:13;0.80;;;0.80;;
23206;SDS011;11773;52.570;13.052;2023-04-07T14:03:43;1.03;;;0.87;;
23206;SDS011;11773;52.570;13.052;2023-04-07T14:06:14;1.03;;;0.87;;
23206;SDS011;11773;52.570;13.052;2023-04-07T14:08:44;0.83;;;0.80;;
23206;SDS011;11773;52.570;13.052;2023-04-07T14:11:16;0.80;;;0.80;;
23206;SDS011;11773;52.570;13.052;2023-04-07T14:13:48;0.70;;;0.70;;
23206;SDS011;11773;52.570;13.052;2023-04-07T14:16:18;0.50;;;0.50;;
23206;SDS011;11773;52.570;13.052;2023-04-07T14:18:48;0.93;;;0.93;;
23206;SDS011;11773;52.570;13.052;2023-04-07T14:21:18;0.80;;;0.80;;
23206;SDS011;11773;52.570;13.052;2023-04-07T14:23:48;1.00;;;0.80;;
23206;SDS011;11773;52.570;13.052;2023-04-07T14:26:18;0.60;;;0.60;;
23206;SDS011;11773;52.570;13.052;2023-04-07T14:28:48;1.10;;;0.83;;
23206;SDS011;11773;52.570;13.052;2023-04-07T14:31:18;0.67;;;0.67;;
23206;SDS011;11773;52.570;13.052;2023-04-07T14:33:48;1.20;;;0.97;;
23206;SDS011;11773;52.570;13.052;2023-04-07T14:36:18;0.47;;;0.47;;
23206;SDS011;11773;52.570;13.052;2023-04-07T14:38:47;0.40;;;0.40;;
23206;SDS011;11773;52.570;13.052;2023-04-07T14:41:17;1.03;;;0.90;;
23206;SDS011;11773;52.570;13.052;2023-04-07T14:43:46;0.73;;;0.60;;
23206;SDS011;11773;52.570;13.052;2023-04-07T14:46:20;0.53;;;0.47;;
23206;SDS011;11773;52.570;13.052;2023-04-07T14:48:53;0.40;;;0.40;;
23206;SDS011;11773;52.570;13.052;2023-04-07T14:51:24;1.30;;;0.80;;
23206;SDS011;11773;52.570;13.052;2023-04-07T14:53:54;1.10;;;0.90;;
23206;SDS011;11773;52.570;13.052;2023-04-07T14:56:24;0.70;;;0.70;;
23206;SDS011;11773;52.570;13.052;2023-04-07T14:58:53;0.70;;;0.57;;
23206;SDS011;11773;52.570;13.052;2023-04-07T15:01:23;0.40;;;0.40;;
23206;SDS011;11773;52.570;13.052;2023-04-07T15:03:52;0.60;;;0.60;;
23206;SDS011;11773;52.570;13.052;2023-04-07T15:06:22;0.83;;;0.53;;
23206;SDS011;11773;52.570;13.052;2023-04-07T15:08:52;0.90;;;0.90;;
23206;SDS011;11773;52.570;13.052;2023-04-07T15:11:22;0.80;;;0.77;;
23206;SDS011;11773;52.570;13.052;2023-04-07T15:13:52;0.53;;;0.53;;
23206;SDS011;11773;52.570;13.052;2023-04-07T15:16:21;0.53;;;0.53;;
23206;SDS011;11773;52.570;13.052;2023-04-07T15:18:51;0.50;;;0.50;;